Time;durP1;ratioP1;P1;durP2;ratioP2;P2;SDS_P1;SDS_P2;PMS_P1;PMS_P2;Temp;Humidity;BMP_temperature;BMP_pressure;BME280_temperature;BME280_humidity;BME280_pressure;Samples;Min_cycle;Max_cycle;Signal;HPM_P1;HPM_P2
2022/07/19 00:02:04;;;;;;;7.82;2.50;;;30.30;53.00;;;;;;5029735;28;20014;-79
2022/07/19 00:04:31;;;;;;;6.60;3.03;;;30.30;53.30;;;;;;5029662;28;20062;-79
2022/07/19 00:06:57;;;;;;;10.18;2.75;;;30.30;53.10;;;;;;5029827;28;20017;-79
2022/07/19 00:09:23;;;;;;;4.35;2.97;;;30.30;53.50;;;;;;5029722;28;20079;-79
2022/07/19 00:11:49;;;;;;;4.88;3.00;;;30.30;53.30;;;;;;5030182;28;20029;-79
2022/07/19 00:14:15;;;;;;;10.73;2.95;;;30.20;53.70;;;;;;5029486;28;20033;-79
2022/07/19 00:16:41;;;;;;;5.43;2.50;;;30.20;53.50;;;;;;5029591;28;20028;-79
2022/07/19 00:19:07;;;;;;;4.05;2.50;;;30.20;53.60;;;;;;5029844;28;20025;-79
2022/07/19 00:21:33;;;;;;;4.40;2.53;;;30.20;54.00;;;;;;5029886;28;20393;-79
2022/07/19 00:24:00;;;;;;;4.72;2.60;;;30.10;53.80;;;;;;5029471;28;20104;-79
2022/07/19 00:26:28;;;;;;;5.97;3.05;;;30.10;54.20;;;;;;5029460;28;20648;-79
2022/07/19 00:28:56;;;;;;;5.25;2.70;;;30.10;54.00;;;;;;5029361;28;20348;-79
2022/07/19 00:31:22;;;;;;;8.30;3.10;;;30.00;54.20;;;;;;5011662;28;20038;-79
2022/07/19 00:33:48;;;;;;;6.97;2.80;;;30.00;54.10;;;;;;5029638;28;20429;-79
2022/07/19 00:36:14;;;;;;;8.52;3.50;;;30.00;54.10;;;;;;5029727;28;20056;-79
2022/07/19 00:38:40;;;;;;;8.52;3.17;;;30.00;54.70;;;;;;5029477;28;20470;-79
2022/07/19 00:41:05;;;;;;;6.57;3.22;;;29.90;54.40;;;;;;5029308;28;20032;-79
2022/07/19 00:43:31;;;;;;;3.35;2.97;;;30.00;54.50;;;;;;5029390;28;20064;-80
2022/07/19 00:45:58;;;;;;;7.53;3.13;;;30.00;54.60;;;;;;5029176;28;20025;-79
2022/07/19 00:48:24;;;;;;;5.85;3.40;;;30.00;54.80;;;;;;5029225;28;20025;-79
2022/07/19 00:50:49;;;;;;;4.75;3.45;;;29.90;55.20;;;;;;5029384;28;20033;-79
2022/07/19 00:53:17;;;;;;;7.22;3.40;;;29.80;56.00;;;;;;5029450;28;20501;-79
2022/07/19 00:55:44;;;;;;;6.30;3.90;;;29.70;56.80;;;;;;5032275;28;20112;-79
2022/07/19 00:58:11;;;;;;;7.32;4.18;;;29.50;58.20;;;;;;5032886;28;20075;-79
2022/07/19 01:00:38;;;;;;;5.50;4.30;;;29.40;59.00;;;;;;5032857;28;20021;-79
2022/07/19 01:03:05;;;;;;;5.82;4.28;;;29.30;59.90;;;;;;5032401;28;20032;-79
2022/07/19 01:05:31;;;;;;;8.05;4.82;;;29.20;60.80;;;;;;5032575;28;20017;-79
2022/07/19 01:07:57;;;;;;;9.15;5.63;;;29.10;62.10;;;;;;5032618;28;20033;-78
2022/07/19 01:10:22;;;;;;;6.10;5.35;;;28.90;63.60;;;;;;5032499;28;20037;-79
2022/07/19 01:12:48;;;;;;;6.28;5.68;;;28.70;64.90;;;;;;5032749;28;20082;-79
2022/07/19 01:15:19;;;;;;;9.10;5.68;;;28.60;66.10;;;;;;5032416;28;20030;-79
2022/07/19 01:17:45;;;;;;;8.65;6.43;;;28.50;67.40;;;;;;5032355;28;20501;-79
2022/07/19 01:20:11;;;;;;;8.32;6.30;;;28.40;69.10;;;;;;5032417;28;20025;-79
2022/07/19 01:22:37;;;;;;;10.57;6.30;;;28.30;70.00;;;;;;5032538;28;20036;-79
2022/07/19 01:25:04;;;;;;;8.23;6.25;;;28.30;71.10;;;;;;5032118;28;20041;-79
2022/07/19 01:27:30;;;;;;;9.20;7.10;;;28.10;72.50;;;;;;5032165;28;20440;-79
2022/07/19 01:29:55;;;;;;;12.35;7.32;;;28.00;73.80;;;;;;5031961;28;20556;-79
2022/07/19 01:32:21;;;;;;;10.55;7.38;;;27.90;74.80;;;;;;5032051;28;20493;-78
2022/07/19 01:34:47;;;;;;;8.27;7.00;;;27.90;75.80;;;;;;5032233;28;20200;-79
2022/07/19 01:37:12;;;;;;;9.65;7.53;;;27.70;76.80;;;;;;5032060;28;20033;-79
2022/07/19 01:39:38;;;;;;;14.48;8.00;;;27.70;78.10;;;;;;5032059;28;20277;-79
2022/07/19 01:42:04;;;;;;;11.88;8.57;;;27.50;80.20;;;;;;5031995;28;20436;-79
2022/07/19 01:44:29;;;;;;;10.15;9.00;;;27.40;82.10;;;;;;5031799;28;20029;-79
2022/07/19 01:46:55;;;;;;;13.63;9.88;;;27.30;83.80;;;;;;5031745;28;20024;-79
2022/07/19 01:49:21;;;;;;;15.52;10.68;;;27.20;85.10;;;;;;5031839;28;20030;-79
2022/07/19 01:51:46;;;;;;;13.73;10.32;;;27.10;87.10;;;;;;5031781;28;20060;-79
2022/07/19 01:54:12;;;;;;;14.55;11.38;;;27.00;88.10;;;;;;5032086;28;20500;-79
2022/07/19 01:56:42;;;;;;;12.82;10.50;;;26.80;89.70;;;;;;5031753;28;20029;-79
2022/07/19 01:59:08;;;;;;;15.82;12.23;;;26.60;90.70;;;;;;5031856;28;20021;-79
2022/07/19 02:01:33;;;;;;;15.48;12.20;;;26.60;91.40;;;;;;5031537;28;20032;-78
2022/07/19 02:03:59;;;;;;;14.88;11.77;;;26.50;91.80;;;;;;5031539;28;20481;-78
2022/07/19 02:06:25;;;;;;;19.88;13.98;;;26.40;92.30;;;;;;5031380;28;20533;-78
2022/07/19 02:08:50;;;;;;;20.92;14.77;;;26.30;92.70;;;;;;5031284;28;20474;-78
2022/07/19 02:14:00;;;;;;;19.95;15.45;;;26.00;94.60;;;;;;5031631;28;20024;-79
2022/07/19 02:16:26;;;;;;;19.25;16.98;;;25.90;95.50;;;;;;5031383;28;20042;-79
2022/07/19 02:18:52;;;;;;;20.35;16.38;;;25.80;96.50;;;;;;5031117;28;20018;-78
2022/07/19 02:21:18;;;;;;;20.65;16.50;;;25.70;97.10;;;;;;5031203;28;20030;-79
2022/07/19 02:23:43;;;;;;;22.38;15.63;;;25.60;97.50;;;;;;5031088;28;20032;-78
2022/07/19 02:26:09;;;;;;;19.27;15.77;;;25.70;97.60;;;;;;5030955;28;20065;-79
2022/07/19 02:28:35;;;;;;;21.85;16.13;;;25.80;98.00;;;;;;5031027;28;20076;-78
2022/07/19 02:31:00;;;;;;;21.30;16.00;;;25.70;98.00;;;;;;5030780;28;20037;-78
2022/07/19 02:33:26;;;;;;;22.73;16.00;;;25.70;98.10;;;;;;5030863;28;20568;-78
2022/07/19 02:35:52;;;;;;;19.67;15.52;;;25.60;98.50;;;;;;5031613;28;20060;-78
2022/07/19 02:38:17;;;;;;;22.27;16.95;;;25.60;98.90;;;;;;5031109;28;20370;-78
2022/07/19 02:40:43;;;;;;;22.52;16.38;;;25.50;99.50;;;;;;5030889;28;20036;-78
2022/07/19 02:43:09;;;;;;;21.98;17.13;;;25.40;99.90;;;;;;5030777;28;20512;-79
2022/07/19 02:45:34;;;;;;;20.63;17.30;;;25.40;99.90;;;;;;5030713;28;20049;-79
2022/07/19 02:48:02;;;;;;;24.42;18.85;;;25.40;99.90;;;;;;5030438;28;20059;-78
2022/07/19 02:50:28;;;;;;;26.92;20.38;;;25.40;99.90;;;;;;5030607;28;20096;-79
2022/07/19 02:52:54;;;;;;;25.08;20.25;;;25.30;99.90;;;;;;5030666;28;20029;-78
2022/07/19 02:55:19;;;;;;;27.45;20.92;;;25.30;99.90;;;;;;5030670;28;20087;-78
2022/07/19 02:57:45;;;;;;;25.17;22.25;;;25.20;99.90;;;;;;5030643;28;20486;-78
2022/07/19 03:00:12;;;;;;;32.45;22.85;;;25.20;99.90;;;;;;5030547;28;20453;-78
2022/07/19 03:02:38;;;;;;;29.80;25.63;;;25.30;99.90;;;;;;5030274;28;20026;-78
2022/07/19 03:05:05;;;;;;;33.10;26.30;;;25.30;99.90;;;;;;5030553;28;20091;-78
2022/07/19 03:07:30;;;;;;;34.88;28.77;;;25.20;99.90;;;;;;5030428;28;20034;-78
2022/07/19 03:09:56;;;;;;;37.63;30.52;;;25.10;99.90;;;;;;5030086;28;20060;-78
2022/07/19 03:12:22;;;;;;;34.83;30.52;;;24.90;99.90;;;;;;5030179;28;20037;-78
2022/07/19 03:14:47;;;;;;;37.80;31.85;;;24.80;99.90;;;;;;5030125;28;20014;-79
2022/07/19 03:17:13;;;;;;;44.42;33.13;;;24.80;99.90;;;;;;5029531;28;20040;-78
2022/07/19 03:19:38;;;;;;;38.35;34.03;;;24.70;99.90;;;;;;5030182;28;20025;-78
2022/07/19 03:22:04;;;;;;;34.35;29.38;;;24.60;99.90;;;;;;5030242;28;20033;-78
2022/07/19 03:24:30;;;;;;;31.13;27.33;;;24.40;99.90;;;;;;5030085;28;20092;-78
2022/07/19 03:26:55;;;;;;;39.80;27.50;;;24.20;99.90;;;;;;5029991;28;20531;-78
2022/07/19 03:29:21;;;;;;;32.78;28.02;;;23.90;99.90;;;;;;5029683;28;20046;-78
2022/07/19 03:31:47;;;;;;;35.30;28.52;;;23.70;99.90;;;;;;5028316;28;20060;-78
2022/07/19 03:34:12;;;;;;;35.38;29.25;;;23.60;99.90;;;;;;5029950;28;20022;-78
2022/07/19 03:36:38;;;;;;;33.95;29.77;;;23.60;99.90;;;;;;5030076;28;20026;-78
2022/07/19 03:39:04;;;;;;;35.50;30.33;;;23.60;99.90;;;;;;5029977;28;20030;-78
2022/07/19 03:41:30;;;;;;;48.30;34.80;;;23.60;99.90;;;;;;5029863;28;20026;-78
2022/07/19 03:43:55;;;;;;;49.15;35.63;;;23.60;99.90;;;;;;5030001;28;20539;-78
2022/07/19 03:46:21;;;;;;;52.35;38.00;;;23.60;99.90;;;;;;5029808;28;20068;-78
2022/07/19 03:48:48;;;;;;;48.42;38.78;;;23.50;99.90;;;;;;5029550;28;20052;-78
2022/07/19 03:51:14;;;;;;;47.90;39.70;;;23.50;99.90;;;;;;5029579;28;20516;-79
2022/07/19 03:53:40;;;;;;;55.60;41.65;;;23.50;99.90;;;;;;5029637;28;20026;-78
2022/07/19 03:56:05;;;;;;;44.05;38.17;;;23.40;99.90;;;;;;5029609;28;20025;-78
2022/07/19 03:58:31;;;;;;;49.90;41.00;;;23.40;99.90;;;;;;5029769;28;20051;-78
2022/07/19 04:00:57;;;;;;;57.05;42.63;;;23.30;99.90;;;;;;5029703;28;20025;-78
2022/07/19 04:03:23;;;;;;;48.40;42.53;;;23.20;99.90;;;;;;5029551;28;20061;-80
2022/07/19 04:05:49;;;;;;;56.25;43.95;;;23.30;99.90;;;;;;5029637;28;20028;-79
2022/07/19 04:08:14;;;;;;;52.60;43.40;;;23.30;99.90;;;;;;5029477;28;20029;-79
2022/07/19 04:10:41;;;;;;;52.90;44.65;;;23.20;99.90;;;;;;5029453;28;20034;-84
2022/07/19 04:13:07;;;;;;;62.58;46.15;;;23.30;99.90;;;;;;5027964;28;20401;-82
2022/07/19 04:15:33;;;;;;;54.83;43.75;;;23.30;99.90;;;;;;5029356;28;20024;-85
2022/07/19 04:17:58;;;;;;;53.22;44.03;;;23.30;99.90;;;;;;5040037;28;20021;-82
2022/07/19 04:20:24;;;;;;;56.17;45.25;;;23.40;99.90;;;;;;5034499;28;20029;-87
2022/07/19 04:22:50;;;;;;;53.63;44.60;;;23.30;99.90;;;;;;5021963;28;20181;-82
2022/07/19 04:25:16;;;;;;;54.42;44.92;;;23.40;99.90;;;;;;5020274;28;20049;-82
2022/07/19 04:27:43;;;;;;;55.90;44.80;;;23.30;99.90;;;;;;5022928;28;20048;-82
2022/07/19 04:30:09;;;;;;;55.28;44.75;;;23.30;99.90;;;;;;5033181;28;20284;-81
2022/07/19 04:32:34;;;;;;;58.67;44.47;;;23.30;99.90;;;;;;5031355;28;20041;-82
2022/07/19 04:35:01;;;;;;;54.47;45.58;;;23.40;99.90;;;;;;5023973;28;20025;-82
2022/07/19 04:37:26;;;;;;;54.63;43.97;;;23.40;99.90;;;;;;5023018;28;20026;-83
2022/07/19 04:39:52;;;;;;;48.35;42.35;;;23.50;99.90;;;;;;5023483;28;20025;-81
2022/07/19 04:42:18;;;;;;;49.97;42.30;;;23.60;99.90;;;;;;5024406;28;20036;-80
2022/07/19 04:44:44;;;;;;;58.47;43.63;;;23.70;99.90;;;;;;5021859;28;20030;-82
2022/07/19 04:47:09;;;;;;;50.08;40.20;;;23.70;99.90;;;;;;5022680;28;20079;-81
2022/07/19 04:49:35;;;;;;;53.08;42.55;;;23.80;99.90;;;;;;5023107;28;20048;-81
2022/07/19 04:52:01;;;;;;;49.83;40.90;;;23.80;99.90;;;;;;5028433;28;20040;-81
2022/07/19 04:54:26;;;;;;;50.47;41.53;;;23.90;99.90;;;;;;5033064;28;20508;-81
2022/07/19 04:56:52;;;;;;;54.67;42.22;;;23.80;99.90;;;;;;5033211;28;20029;-81
2022/07/19 04:59:18;;;;;;;55.22;41.47;;;23.80;99.90;;;;;;5032776;28;20401;-81
2022/07/19 05:01:44;;;;;;;50.45;39.35;;;23.80;99.90;;;;;;5032633;28;20063;-81
2022/07/19 05:04:10;;;;;;;58.33;41.45;;;23.80;99.90;;;;;;5032869;28;20034;-80
2022/07/19 05:06:35;;;;;;;54.05;40.47;;;23.70;99.90;;;;;;5020307;28;20041;-80
2022/07/19 05:09:01;;;;;;;52.00;40.00;;;23.70;99.90;;;;;;5012745;28;20310;-80
2022/07/19 05:11:27;;;;;;;57.20;40.03;;;23.70;99.90;;;;;;5012569;28;20037;-80
